createdAt,value
2018-01-24T20:07:23.915Z,7.4
2018-01-24T20:09:19.743Z,7.38
2018-01-24T20:10:19.776Z,7.41
2018-01-24T20:11:18.770Z,7.41
2018-01-24T20:12:20.424Z,7.43
2018-01-24T20:13:19.525Z,7.44
2018-01-24T20:14:20.245Z,7.38
2018-01-24T20:15:19.045Z,7.42
2018-01-24T20:16:22.095Z,7.39
2018-01-24T20:17:25.034Z,7.39
2018-01-24T20:18:26.684Z,7.4
2018-01-24T20:19:28.050Z,7.39
2018-01-24T20:20:14.702Z,7.42
2018-01-24T20:21:13.648Z,7.37
2018-01-24T20:22:12.848Z,7.34
2018-01-24T20:23:12.614Z,7.34
2018-01-24T20:24:13.504Z,7.34
2018-01-24T20:25:13.322Z,7.35
2018-01-24T20:26:14.810Z,7.39
2018-01-24T20:27:12.985Z,7.39
2018-01-24T20:28:15.714Z,7.38
2018-01-24T20:29:14.237Z,7.3
2018-01-24T20:30:15.955Z,7.32
2018-01-24T20:31:13.303Z,7.34
2018-01-24T20:32:12.690Z,7.39
2018-01-24T20:33:20.159Z,7.39
2018-01-24T20:34:15.993Z,7.36
2018-01-24T20:35:13.186Z,7.37
2018-01-24T20:36:12.449Z,7.38
2018-01-24T20:37:15.674Z,7.31
2018-01-24T20:38:17.651Z,7.31
2018-01-24T20:39:13.301Z,7.29
2018-01-24T20:40:16.891Z,7.28
2018-01-24T20:41:15.554Z,7.3
2018-01-24T20:42:12.859Z,7.26
2018-01-24T20:43:16.587Z,7.29
2018-01-24T20:44:15.703Z,7.31
2018-01-24T20:45:13.380Z,7.24
2018-01-24T20:46:12.906Z,7.24
2018-01-24T20:47:16.288Z,7.2
2018-01-24T20:48:12.615Z,7.26
2018-01-24T20:49:14.227Z,7.26
2018-01-24T20:50:14.718Z,7.28
2018-01-24T20:51:15.638Z,7.24
2018-01-24T20:52:13.068Z,7.23
2018-01-24T20:53:13.015Z,7.19
2018-01-24T20:54:14.581Z,7.15
2018-01-24T20:55:12.811Z,7.17
2018-01-24T20:56:16.150Z,7.21
2018-01-24T20:57:14.464Z,7.22
2018-01-24T20:58:12.115Z,7.23
2018-01-24T20:59:14.169Z,7.19
2018-01-24T21:00:14.920Z,7.17
2018-01-24T21:01:12.236Z,7.18
2018-01-24T21:02:19.843Z,7.19
2018-01-24T21:03:14.366Z,7.18
2018-01-24T21:04:14.832Z,7.2
2018-01-24T21:05:12.199Z,7.14
2018-01-24T21:06:15.309Z,7.16
2018-01-24T21:07:12.416Z,7.14
2018-01-24T21:08:15.460Z,7.16
2018-01-24T21:09:13.330Z,7.16
2018-01-24T21:10:13.117Z,7.11
2018-01-24T21:11:14.265Z,7.12
2018-01-24T21:12:17.982Z,7.1
2018-01-24T21:13:13.932Z,7.12
2018-01-24T21:14:14.785Z,7.13
2018-01-24T21:15:13.677Z,7.13
2018-01-24T21:16:13.874Z,7.1
2018-01-24T21:17:11.745Z,7.1
2018-01-24T21:18:12.135Z,7.03
2018-01-24T21:59:13.215Z,6.78
2018-01-24T21:59:21.045Z,6.79
2018-01-24T21:59:26.756Z,6.77
2018-01-24T21:59:33.036Z,6.77
2018-01-24T21:59:45.251Z,6.78
2018-01-24T22:00:00.652Z,6.76
2018-01-24T22:00:17.391Z,6.75
2018-01-24T22:00:23.641Z,6.75
2018-01-24T22:00:32.350Z,6.8
2018-01-24T22:00:41.280Z,6.81
2018-01-24T22:00:50.030Z,6.81
2018-01-24T22:01:07.588Z,6.8
2018-01-24T22:01:19.246Z,6.82
2018-01-24T22:01:28.656Z,6.79
2018-01-24T22:01:44.954Z,6.83
2018-01-24T22:01:55.305Z,6.77
2018-01-24T22:02:11.533Z,6.74
2018-01-24T22:02:23.630Z,6.72
2018-01-24T22:02:32.062Z,6.73
2018-01-24T22:02:43.841Z,6.74
2018-01-24T22:02:57.843Z,6.82
2018-01-24T22:03:08.837Z,6.84
2018-01-24T22:03:16.634Z,6.83
2018-01-24T22:03:27.486Z,6.84
2018-01-24T22:03:42.419Z,6.86
2018-01-24T22:03:51.623Z,6.85
2018-01-24T22:03:59.825Z,6.84
2018-01-24T22:04:14.325Z,6.84
2018-01-24T22:04:45.157Z,6.84
2018-01-24T22:05:11.280Z,6.8
2018-01-24T22:05:20.459Z,6.8
2018-01-24T22:05:29.167Z,6.83
2018-01-24T22:05:38.618Z,6.8
2018-01-24T22:05:52.249Z,6.81
2018-01-24T22:06:03.773Z,6.8
2018-01-24T22:06:21.032Z,6.81
2018-01-24T22:06:30.510Z,6.78
2018-01-24T22:06:41.792Z,6.79
2018-01-24T22:06:54.685Z,6.81
2018-01-24T22:07:06.305Z,6.8
2018-01-24T22:07:19.401Z,6.8
2018-01-24T22:07:30.063Z,6.76
2018-01-24T22:07:39.556Z,6.79
2018-01-24T22:07:45.369Z,6.84
2018-01-24T22:07:53.415Z,6.79
2018-01-24T22:08:00.431Z,6.79
2018-01-24T22:08:12.872Z,6.81
2018-01-24T22:09:15.571Z,6.77
2018-01-24T22:10:14.859Z,6.74
2018-01-24T22:11:17.050Z,6.79
2018-01-24T22:12:18.915Z,6.8
2018-01-24T22:13:15.033Z,6.82
2018-01-24T22:14:18.019Z,6.73
2018-01-24T22:15:13.822Z,6.66
2018-01-24T22:16:14.050Z,6.64
2018-01-24T22:17:14.534Z,6.61
2018-01-24T22:18:15.103Z,6.61
2018-01-24T22:19:26.034Z,6.6
2018-01-24T22:20:15.214Z,6.56
2018-01-24T22:21:14.027Z,6.55
2018-01-24T22:22:25.065Z,6.55
2018-01-24T22:23:13.014Z,6.52
2018-01-24T22:24:14.424Z,6.5
2018-01-24T22:25:13.225Z,6.52
2018-01-24T22:26:15.707Z,6.61
2018-01-24T22:27:15.938Z,6.56
2018-01-24T22:28:13.892Z,6.57
2018-01-24T22:29:19.999Z,6.48
2018-01-24T22:30:20.466Z,6.42
2018-01-24T22:31:13.308Z,6.4
2018-01-24T22:32:16.559Z,6.42
2018-01-24T22:33:18.060Z,6.38
2018-01-24T22:34:15.916Z,6.45
2018-01-24T22:35:15.561Z,6.36
2018-01-24T22:36:19.684Z,6.35
2018-01-24T22:37:14.257Z,6.33
2018-01-24T22:38:15.668Z,6.39
2018-01-24T22:40:16.372Z,6.36
2018-01-24T22:42:25.325Z,6.35
2018-01-24T22:45:23.231Z,6.33
2018-01-24T22:46:17.413Z,6.27
2018-01-24T22:47:15.281Z,6.34
2018-01-24T22:48:16.700Z,6.29
2018-01-24T22:49:15.478Z,6.23
2018-01-24T22:50:17.311Z,6.24
2018-01-24T22:51:16.027Z,6.21
2018-01-24T22:52:17.020Z,6.18
2018-01-24T22:53:16.446Z,6.3
2018-01-24T22:54:15.346Z,6.33
2018-01-24T22:55:12.445Z,6.34
2018-01-24T22:56:12.198Z,6.37
2018-01-24T22:57:15.384Z,6.3
2018-01-24T22:58:13.776Z,6.32
2018-01-24T22:59:12.513Z,6.4
2018-01-24T23:00:13.447Z,6.36
2018-01-24T23:01:13.124Z,6.43
2018-01-24T23:02:13.323Z,6.4
2018-01-24T23:03:14.058Z,6.4
2018-01-24T23:04:16.621Z,6.34
2018-01-24T23:05:12.314Z,6.29
2018-01-24T23:06:12.601Z,6.28
2018-01-24T23:07:12.939Z,6.24
2018-01-24T23:08:21.173Z,6.2
2018-01-24T23:09:12.068Z,6.14
2018-01-24T23:10:12.543Z,6.19
2018-01-24T23:11:13.958Z,6.17
2018-01-24T23:12:16.844Z,6.12
2018-01-24T23:13:12.818Z,6.11
2018-01-24T23:14:15.785Z,6.07
2018-01-24T23:15:13.737Z,6.1
2018-01-24T23:16:12.569Z,6.22
2018-01-24T23:17:12.637Z,6.29
2018-01-24T23:18:12.825Z,6.3
2018-01-24T23:19:14.433Z,6.29
2018-01-24T23:20:13.833Z,6.24
2018-01-24T23:21:18.057Z,6.18
2018-01-24T23:22:14.226Z,6.29
2018-01-24T23:23:13.310Z,6.23
2018-01-24T23:24:11.775Z,6.31
2018-01-24T23:25:14.729Z,6.31
2018-01-24T23:26:16.687Z,6.26
2018-01-24T23:27:12.569Z,6.35
2018-01-24T23:28:12.336Z,6.29
2018-01-24T23:29:13.428Z,6.28
2018-01-24T23:30:14.010Z,6.2
2018-01-24T23:31:15.896Z,6.26
2018-01-24T23:32:12.667Z,6.26
2018-01-24T23:33:14.668Z,6.24
2018-01-24T23:34:11.509Z,6.24
2018-01-24T23:35:11.840Z,6.16
2018-01-24T23:36:12.206Z,6.13
2018-01-24T23:37:17.128Z,6.18
2018-01-24T23:38:11.546Z,6.15
2018-01-24T23:39:13.651Z,6.13
2018-01-24T23:40:15.398Z,6.2
2018-01-24T23:41:14.150Z,6.17
2018-01-24T23:42:12.144Z,6.21
2018-01-24T23:43:14.118Z,6.25
2018-01-24T23:44:12.401Z,6.31
2018-01-24T23:45:16.712Z,6.23
2018-01-24T23:46:13.728Z,6.27
2018-01-24T23:47:12.720Z,6.25
2018-01-24T23:48:15.035Z,6.24
2018-01-24T23:49:13.037Z,6.18
2018-01-24T23:50:11.825Z,6.17
2018-01-24T23:51:13.312Z,6.17
2018-01-24T23:52:15.092Z,6.2
2018-01-24T23:53:12.140Z,6.16
2018-01-24T23:54:13.132Z,6.2
2018-01-24T23:55:13.121Z,6.21
2018-01-24T23:56:12.952Z,6.18
2018-01-24T23:57:11.946Z,6.1
2018-01-24T23:58:15.535Z,6.21
2018-01-24T23:59:13.318Z,6.22
